Lewes, United Kingdom
Current Conditions -  °F | °C
As of 1:20 PM on Sunday 21 Dec 2014 (Local Time) from EGKA Reporting Station
Broken Clouds Broken Clouds  
Wind Chill: 42°   Ceiling: 2200
Heat Index: 48°   Visibility: 6mi
Dew Point: 46°   Wind: 18mph
Humidity: 93%   Direction: 260°W
Pressure: 30.36"   Gusts: NA
Location:  50.87°N, 0.01°E
Report Text: EGKA 211320Z 26016KT 9000 FEW012 BKN022 09/08 Q1028
Loading
Personal Weather Stations






























Interactive Weather Map New forecast layout! Learn more

10-Day Weather Forecast

Advertisements
Track Severe Weather on mobile